createdAt,value
2022-12-18T00:00:49.003Z,26.97
2022-12-18T00:03:16.502Z,24.57
2022-12-18T00:05:53.853Z,26.77
2022-12-18T00:08:20.797Z,27.47
2022-12-18T00:10:48.050Z,26.73
2022-12-18T00:13:14.927Z,27.37
2022-12-18T00:15:41.805Z,27.27
2022-12-18T00:18:09.052Z,28.37
2022-12-18T00:20:40.258Z,27.77
2022-12-18T00:23:08.354Z,27.97
2022-12-18T00:25:36.582Z,25.93
2022-12-18T00:28:04.342Z,29.33
2022-12-18T00:30:31.287Z,29.33
2022-12-18T00:32:59.182Z,28.60
2022-12-18T00:35:25.995Z,23.93
2022-12-18T00:37:52.910Z,28.43
2022-12-18T00:40:19.754Z,25.53
2022-12-18T00:42:58.850Z,24.80
2022-12-18T00:45:32.598Z,27.50
2022-12-18T00:47:59.461Z,26.67
2022-12-18T00:50:26.984Z,26.97
2022-12-18T00:52:53.816Z,26.77
2022-12-18T00:55:20.665Z,25.23
2022-12-18T00:57:47.491Z,25.00
2022-12-18T01:00:16.056Z,22.77
2022-12-18T01:02:44.159Z,25.13
2022-12-18T01:05:14.120Z,26.33
2022-12-18T01:07:41.106Z,26.07
2022-12-18T01:10:11.080Z,27.37
2022-12-18T01:12:37.923Z,25.83
2022-12-18T01:15:06.325Z,27.37
2022-12-18T01:17:34.020Z,26.30
2022-12-18T01:20:00.810Z,22.30
2022-12-18T01:22:27.795Z,27.00
2022-12-18T01:24:54.799Z,26.10
2022-12-18T01:27:21.644Z,26.17
2022-12-18T01:29:48.536Z,26.30
2022-12-18T01:32:15.330Z,25.93
2022-12-18T01:34:42.191Z,29.07
2022-12-18T01:37:09.214Z,28.60
2022-12-18T01:39:36.158Z,27.77
2022-12-18T01:42:14.404Z,28.33
2022-12-18T01:45:03.044Z,27.93
2022-12-18T01:47:32.933Z,26.80
2022-12-18T01:50:07.305Z,29.50
2022-12-18T01:52:34.836Z,29.40
2022-12-18T01:55:04.834Z,28.80
2022-12-18T01:57:32.501Z,28.20
2022-12-18T02:00:04.470Z,27.57
2022-12-18T02:02:32.224Z,27.90
2022-12-18T02:04:59.592Z,25.83
2022-12-18T02:07:50.788Z,25.27
2022-12-18T02:10:23.220Z,25.60
2022-12-18T02:12:57.301Z,27.83
2022-12-18T02:15:36.129Z,28.47
2022-12-18T02:18:07.901Z,20.90
2022-12-18T02:20:41.913Z,26.33
2022-12-18T02:23:31.682Z,23.33
2022-12-18T02:26:23.079Z,26.23
2022-12-18T02:28:59.988Z,25.63
2022-12-18T02:31:31.152Z,25.97
2022-12-18T02:34:02.066Z,26.93
2022-12-18T02:36:30.462Z,29.20
2022-12-18T02:38:58.019Z,26.17
2022-12-18T02:41:25.862Z,25.80
2022-12-18T02:44:01.115Z,26.37
2022-12-18T02:46:56.391Z,26.53
2022-12-18T02:49:47.423Z,21.27
2022-12-18T02:52:29.067Z,18.83
2022-12-18T02:55:23.791Z,22.27
2022-12-18T02:57:54.856Z,22.63
2022-12-18T03:00:26.835Z,23.80
2022-12-18T03:03:04.108Z,23.57
2022-12-18T03:05:52.932Z,23.70
2022-12-18T03:08:42.108Z,23.23
2022-12-18T03:11:13.560Z,23.97
2022-12-18T03:13:57.243Z,23.07
2022-12-18T03:16:32.036Z,22.70
2022-12-18T03:19:28.572Z,24.23
2022-12-18T03:21:58.276Z,24.37
2022-12-18T03:24:28.915Z,23.70
2022-12-18T03:27:01.372Z,26.40
2022-12-18T03:29:39.427Z,22.00
2022-12-18T03:32:11.876Z,23.70
2022-12-18T03:34:41.241Z,26.13
2022-12-18T03:37:08.352Z,23.97
2022-12-18T03:39:36.018Z,21.43
2022-12-18T03:42:32.490Z,23.13
2022-12-18T03:45:03.971Z,23.57
2022-12-18T03:47:48.707Z,25.13
2022-12-18T03:50:44.909Z,23.50
2022-12-18T03:53:26.729Z,24.63
2022-12-18T03:55:54.176Z,24.90
2022-12-18T03:58:25.617Z,24.30
2022-12-18T04:00:55.762Z,24.33
2022-12-18T04:03:26.341Z,24.83
2022-12-18T04:05:56.224Z,24.37
2022-12-18T04:08:24.575Z,24.73
2022-12-18T04:10:51.420Z,23.50
2022-12-18T04:13:28.413Z,23.73
2022-12-18T04:15:55.348Z,24.40
2022-12-18T04:18:22.198Z,24.10
2022-12-18T04:20:49.030Z,23.13
2022-12-18T04:23:15.888Z,22.23
2022-12-18T04:25:42.752Z,20.60
2022-12-18T04:28:09.579Z,19.87
2022-12-18T04:30:36.431Z,18.40
2022-12-18T04:33:03.363Z,21.63
2022-12-18T04:35:30.156Z,22.63
2022-12-18T04:37:56.987Z,21.70
2022-12-18T04:40:23.832Z,21.17
2022-12-18T04:42:50.734Z,23.23
2022-12-18T04:45:17.541Z,23.60
2022-12-18T04:47:44.738Z,24.37
2022-12-18T04:50:11.530Z,23.33
2022-12-18T04:52:38.397Z,25.10
2022-12-18T04:55:05.604Z,24.43
2022-12-18T04:57:32.405Z,23.87
2022-12-18T04:59:59.234Z,21.17
2022-12-18T05:02:26.244Z,23.70
2022-12-18T05:04:53.180Z,20.07
2022-12-18T05:07:19.963Z,24.20
2022-12-18T05:09:46.827Z,17.03
2022-12-18T05:12:13.598Z,22.57
2022-12-18T05:14:40.406Z,23.37
2022-12-18T05:17:07.231Z,24.67
2022-12-18T05:19:34.088Z,23.63
2022-12-18T05:22:02.422Z,25.10
2022-12-18T05:24:29.263Z,24.70
2022-12-18T05:26:56.133Z,23.00
2022-12-18T05:29:23.022Z,19.40
2022-12-18T05:31:49.878Z,23.83
2022-12-18T05:34:16.807Z,22.07
2022-12-18T05:36:43.819Z,22.10
2022-12-18T05:39:11.507Z,21.90
2022-12-18T05:41:38.326Z,23.03
2022-12-18T05:44:05.226Z,24.03
2022-12-18T05:46:32.735Z,19.93
2022-12-18T05:49:02.996Z,19.57
2022-12-18T05:51:29.913Z,20.50
2022-12-18T05:53:56.747Z,22.00
2022-12-18T05:56:23.854Z,20.87
2022-12-18T05:58:54.733Z,19.77
2022-12-18T06:01:25.402Z,22.80
2022-12-18T06:03:52.345Z,21.67
2022-12-18T06:06:23.233Z,23.23
2022-12-18T06:08:51.268Z,19.73
2022-12-18T06:11:20.362Z,16.80
2022-12-18T06:13:47.801Z,22.23
2022-12-18T06:16:14.812Z,20.87
2022-12-18T06:18:44.731Z,22.47
2022-12-18T06:21:11.713Z,25.27
2022-12-18T06:23:39.182Z,23.87
2022-12-18T06:26:15.402Z,19.07
2022-12-18T06:28:42.791Z,22.73
2022-12-18T06:31:10.752Z,22.27
2022-12-18T06:33:38.910Z,21.70
2022-12-18T06:36:09.875Z,22.67
2022-12-18T06:38:39.372Z,20.90
2022-12-18T06:41:15.944Z,24.13
2022-12-18T06:43:43.584Z,22.57
2022-12-18T06:46:11.487Z,21.50
2022-12-18T06:48:38.995Z,15.53
2022-12-18T06:51:06.059Z,20.93
2022-12-18T06:53:33.603Z,23.17
2022-12-18T06:56:10.619Z,21.00
2022-12-18T06:58:38.993Z,22.83
2022-12-18T07:01:08.805Z,23.40
2022-12-18T07:03:36.036Z,22.50
2022-12-18T07:06:02.949Z,21.37
2022-12-18T07:08:31.330Z,22.30
2022-12-18T07:10:58.140Z,23.17
2022-12-18T07:13:25.088Z,24.50
2022-12-18T07:15:54.897Z,24.77
2022-12-18T07:18:21.788Z,25.87
2022-12-18T07:20:48.558Z,25.07
2022-12-18T07:23:15.896Z,17.70
2022-12-18T07:25:42.722Z,25.37
2022-12-18T07:28:12.914Z,23.97
2022-12-18T07:30:43.915Z,21.63
2022-12-18T07:33:10.752Z,23.47
2022-12-18T07:35:37.609Z,23.93
2022-12-18T07:38:04.471Z,22.63
2022-12-18T07:40:31.292Z,23.43
2022-12-18T07:42:58.054Z,24.37
2022-12-18T07:45:24.970Z,24.30
2022-12-18T07:47:51.770Z,23.70
2022-12-18T07:50:18.663Z,23.23
2022-12-18T07:52:45.505Z,23.97
2022-12-18T07:55:12.357Z,20.60
2022-12-18T07:57:50.762Z,21.07
2022-12-18T08:00:19.047Z,21.47
2022-12-18T08:02:46.014Z,21.33
2022-12-18T08:05:12.979Z,20.80
2022-12-18T08:07:39.945Z,22.83
2022-12-18T08:10:07.724Z,16.80
2022-12-18T08:12:34.613Z,22.67
2022-12-18T08:15:01.948Z,17.97
2022-12-18T08:17:28.761Z,23.63
2022-12-18T08:19:55.750Z,23.40
2022-12-18T08:22:22.802Z,22.47
2022-12-18T08:24:49.626Z,23.43
2022-12-18T08:27:31.735Z,24.80
2022-12-18T08:29:59.403Z,24.63
2022-12-18T08:32:27.891Z,24.03
2022-12-18T08:34:55.073Z,22.73
2022-12-18T08:37:21.908Z,22.27
2022-12-18T08:39:48.767Z,24.37
2022-12-18T08:42:34.041Z,25.47
2022-12-18T08:45:00.977Z,21.23
2022-12-18T08:47:27.819Z,21.77
2022-12-18T08:49:54.691Z,23.20
2022-12-18T08:52:21.594Z,23.13
2022-12-18T08:54:48.407Z,24.20
2022-12-18T08:57:15.278Z,25.80
2022-12-18T08:59:42.073Z,19.60
2022-12-18T09:02:12.064Z,21.47
2022-12-18T09:04:40.895Z,22.13
2022-12-18T09:07:07.882Z,22.87
2022-12-18T09:09:34.721Z,22.57
2022-12-18T09:12:01.655Z,21.70
2022-12-18T09:14:28.566Z,21.87
2022-12-18T09:16:55.980Z,20.93
2022-12-18T09:19:25.649Z,16.50
2022-12-18T09:21:52.508Z,23.27
2022-12-18T09:24:19.370Z,22.77
2022-12-18T09:26:47.447Z,23.37
2022-12-18T09:29:15.615Z,21.10
2022-12-18T09:31:43.323Z,20.83
2022-12-18T09:34:10.190Z,22.43
2022-12-18T09:36:37.052Z,17.63
2022-12-18T09:39:08.282Z,18.00
2022-12-18T09:41:55.892Z,19.80
2022-12-18T09:44:44.486Z,21.20
2022-12-18T09:47:34.668Z,19.60
2022-12-18T09:50:05.844Z,20.47
2022-12-18T09:52:41.660Z,21.33
2022-12-18T09:55:26.558Z,18.73
2022-12-18T09:57:58.938Z,18.03
2022-12-18T10:00:26.561Z,19.83
2022-12-18T10:03:00.770Z,19.80
2022-12-18T10:05:45.652Z,18.40
2022-12-18T10:08:40.045Z,18.93
2022-12-18T10:11:28.826Z,17.40
2022-12-18T10:14:07.891Z,18.73
2022-12-18T10:16:48.355Z,16.10
2022-12-18T10:19:50.418Z,18.77
2022-12-18T10:22:30.507Z,15.57
2022-12-18T10:25:19.715Z,15.97
2022-12-18T10:27:49.916Z,18.37
2022-12-18T10:30:20.398Z,19.20
2022-12-18T10:32:47.309Z,20.20
2022-12-18T10:35:27.870Z,19.87
2022-12-18T10:38:13.041Z,19.23
2022-12-18T10:40:53.884Z,18.67
2022-12-18T10:43:24.817Z,19.73
2022-12-18T10:46:01.225Z,18.87
2022-12-18T10:48:28.473Z,18.47
2022-12-18T10:51:12.857Z,18.63
2022-12-18T10:53:42.900Z,18.90
2022-12-18T10:56:10.044Z,15.50
2022-12-18T10:58:39.694Z,19.60
2022-12-18T11:01:18.777Z,18.03
2022-12-18T11:04:02.474Z,17.63
2022-12-18T11:06:30.146Z,18.33
2022-12-18T11:09:23.221Z,17.80
2022-12-18T11:11:55.541Z,18.47
2022-12-18T11:14:30.767Z,16.10
2022-12-18T11:20:04.878Z,17.33
2022-12-18T11:22:39.377Z,16.90
2022-12-18T11:25:32.997Z,17.77
2022-12-18T11:28:04.065Z,16.63
2022-12-18T11:30:38.846Z,17.47
2022-12-18T11:33:21.568Z,17.60
2022-12-18T11:35:54.669Z,18.20
2022-12-18T11:38:35.610Z,18.60
2022-12-18T11:41:08.605Z,16.13
2022-12-18T11:43:43.297Z,18.80
2022-12-18T11:46:19.645Z,18.50
2022-12-18T11:49:04.504Z,18.03
2022-12-18T11:51:48.344Z,18.37
2022-12-18T11:54:17.160Z,19.40
2022-12-18T11:57:08.183Z,19.43
2022-12-18T11:59:40.878Z,17.13
2022-12-18T12:02:30.886Z,17.27
2022-12-18T12:05:31.741Z,17.97
2022-12-18T12:08:10.536Z,17.60
2022-12-18T12:11:07.898Z,17.77
2022-12-18T12:13:59.589Z,19.63
2022-12-18T12:16:30.182Z,15.10
2022-12-18T12:19:00.083Z,17.43
2022-12-18T12:21:39.227Z,17.20
2022-12-18T12:24:12.482Z,17.97
2022-12-18T12:26:46.340Z,19.30
2022-12-18T12:29:28.785Z,20.13
2022-12-18T12:32:18.509Z,19.77
2022-12-18T12:35:09.409Z,19.63
2022-12-18T12:37:56.533Z,19.10
2022-12-18T12:40:52.077Z,18.40
2022-12-18T12:43:21.751Z,19.30
2022-12-18T12:46:08.121Z,19.93
2022-12-18T12:48:56.438Z,20.80
2022-12-18T12:51:30.893Z,14.37
2022-12-18T12:54:00.351Z,17.43
2022-12-18T12:56:55.735Z,19.20
2022-12-18T12:59:49.072Z,19.47
2022-12-18T13:02:48.498Z,19.37
2022-12-18T13:05:30.876Z,18.77
2022-12-18T13:08:09.941Z,18.17
2022-12-18T13:10:42.921Z,20.00
2022-12-18T13:13:13.564Z,20.33
2022-12-18T13:16:03.867Z,18.27
2022-12-18T13:18:31.090Z,18.77
2022-12-18T13:21:01.600Z,18.17
2022-12-18T13:23:34.091Z,16.13
2022-12-18T13:26:07.226Z,19.10
2022-12-18T13:28:34.272Z,17.70
2022-12-18T13:31:02.375Z,16.63
2022-12-18T13:34:23.903Z,17.63
2022-12-18T13:36:36.236Z,17.70
2022-12-18T13:42:51.750Z,18.60
2022-12-18T13:45:42.681Z,19.17
2022-12-18T13:48:22.425Z,20.13
2022-12-18T13:51:09.709Z,18.90
2022-12-18T13:53:40.121Z,18.73
2022-12-18T13:56:07.447Z,19.30
2022-12-18T13:58:34.423Z,18.53
2022-12-18T14:01:03.075Z,18.00
2022-12-18T14:03:31.696Z,18.77
2022-12-18T14:06:05.811Z,22.40
2022-12-18T14:08:42.015Z,19.33
2022-12-18T14:11:21.695Z,18.40
2022-12-18T14:13:49.229Z,19.40
2022-12-18T14:16:18.539Z,18.00
2022-12-18T14:18:47.060Z,19.37
2022-12-18T14:21:30.284Z,19.43
2022-12-18T14:24:07.741Z,19.33
2022-12-18T14:26:34.758Z,17.87
2022-12-18T14:29:26.261Z,20.43
2022-12-18T14:32:18.876Z,18.83
2022-12-18T14:34:48.081Z,19.43
2022-12-18T14:37:18.204Z,21.63
2022-12-18T14:40:10.499Z,20.60
2022-12-18T14:42:38.306Z,15.87
2022-12-18T14:45:37.636Z,21.77
2022-12-18T14:48:18.993Z,22.27
2022-12-18T14:51:02.324Z,18.63
2022-12-18T14:53:54.587Z,20.67
2022-12-18T14:56:27.978Z,19.57
2022-12-18T14:59:00.143Z,23.07
2022-12-18T15:01:40.055Z,19.57
2022-12-18T15:04:32.465Z,21.47
2022-12-18T15:07:14.661Z,22.77
2022-12-18T15:09:43.821Z,21.93
2022-12-18T15:12:37.469Z,20.90
2022-12-18T15:15:05.809Z,21.63
2022-12-18T15:17:32.883Z,22.27
2022-12-18T15:20:03.199Z,22.53
2022-12-18T15:22:34.587Z,22.20
2022-12-18T15:25:02.475Z,23.83
2022-12-18T15:27:38.880Z,23.57
2022-12-18T15:30:11.428Z,22.63
2022-12-18T15:32:41.105Z,24.73
2022-12-18T15:35:25.180Z,22.00
2022-12-18T15:37:53.121Z,23.90
2022-12-18T15:40:22.483Z,24.57
2022-12-18T15:43:13.478Z,23.83
2022-12-18T15:45:40.478Z,23.70
2022-12-18T15:48:22.768Z,22.97
2022-12-18T15:50:52.048Z,21.33
2022-12-18T15:53:19.737Z,24.50
2022-12-18T15:56:05.463Z,24.53
2022-12-18T15:58:32.292Z,24.30
2022-12-18T16:01:00.333Z,25.20
2022-12-18T16:03:27.217Z,25.40
2022-12-18T16:05:54.209Z,34.55
2022-12-18T16:08:21.137Z,28.13
2022-12-18T16:10:48.227Z,26.53
2022-12-18T16:13:19.826Z,26.70
2022-12-18T16:15:46.754Z,26.83
2022-12-18T16:18:13.932Z,27.93
2022-12-18T16:20:40.915Z,28.53
2022-12-18T16:23:08.216Z,29.73
2022-12-18T16:25:35.115Z,29.03
2022-12-18T16:28:02.196Z,27.77
2022-12-18T16:30:33.098Z,29.70
2022-12-18T16:33:05.883Z,30.20
2022-12-18T16:35:34.532Z,30.57
2022-12-18T16:38:01.325Z,30.70
2022-12-18T16:40:28.160Z,29.33
2022-12-18T16:42:54.944Z,29.97
2022-12-18T16:45:21.780Z,29.83
2022-12-18T16:47:48.622Z,28.70
2022-12-18T16:50:15.419Z,29.50
2022-12-18T16:52:42.387Z,30.03
2022-12-18T16:55:10.030Z,30.73
2022-12-18T16:57:36.866Z,29.53
2022-12-18T17:00:06.050Z,31.63
2022-12-18T17:02:33.987Z,30.77
2022-12-18T17:05:01.010Z,30.20
2022-12-18T17:07:28.754Z,40.03
2022-12-18T17:09:56.006Z,34.33
2022-12-18T17:12:23.053Z,32.37
2022-12-18T17:14:50.224Z,35.20
2022-12-18T17:17:22.381Z,33.13
2022-12-18T17:19:50.696Z,32.97
2022-12-18T17:22:17.526Z,35.00
2022-12-18T17:24:44.437Z,34.20
2022-12-18T17:27:11.320Z,34.97
2022-12-18T17:29:41.276Z,38.27
2022-12-18T17:32:13.554Z,39.07
2022-12-18T17:34:40.748Z,36.73
2022-12-18T17:37:07.691Z,39.00
2022-12-18T17:39:34.529Z,37.80
2022-12-18T17:42:01.375Z,38.63
2022-12-18T17:44:28.214Z,39.73
2022-12-18T17:46:55.290Z,38.50
2022-12-18T17:49:22.291Z,42.63
2022-12-18T17:51:49.105Z,41.10
2022-12-18T17:54:16.111Z,41.37
2022-12-18T17:56:43.214Z,44.03
2022-12-18T17:59:10.014Z,39.20
2022-12-18T18:01:43.778Z,40.90
2022-12-18T18:04:11.849Z,40.43
2022-12-18T18:06:39.321Z,41.73
2022-12-18T18:09:08.245Z,41.63
2022-12-18T18:12:01.598Z,42.40
2022-12-18T18:14:28.587Z,41.50
2022-12-18T18:16:55.438Z,41.93
2022-12-18T18:19:24.997Z,45.30
2022-12-18T18:21:53.994Z,45.67
2022-12-18T18:24:23.607Z,43.77
2022-12-18T18:26:50.684Z,42.70
2022-12-18T18:29:28.886Z,45.50
2022-12-18T18:31:56.910Z,40.33
2022-12-18T18:34:27.811Z,41.80
2022-12-18T18:36:54.640Z,41.80
2022-12-18T18:39:21.622Z,43.17
2022-12-18T18:41:48.928Z,41.13
2022-12-18T18:44:21.555Z,42.20
2022-12-18T18:46:57.234Z,42.30
2022-12-18T18:49:27.565Z,42.33
2022-12-18T18:51:55.839Z,43.07
2022-12-18T18:54:22.762Z,41.43
2022-12-18T18:59:37.285Z,51.47
2022-12-18T19:02:05.014Z,42.97
2022-12-18T19:04:34.968Z,42.53
2022-12-18T19:07:02.222Z,45.43
2022-12-18T19:09:29.478Z,43.47
2022-12-18T19:12:15.441Z,44.33
2022-12-18T19:14:42.993Z,41.07
2022-12-18T19:17:10.225Z,43.47
2022-12-18T19:19:37.260Z,44.60
2022-12-18T19:22:04.209Z,45.30
2022-12-18T19:24:31.508Z,44.63
2022-12-18T19:26:58.590Z,52.83
2022-12-18T19:29:25.606Z,45.17
2022-12-18T19:31:52.673Z,47.07
2022-12-18T19:34:19.683Z,46.53
2022-12-18T19:36:46.688Z,46.20
2022-12-18T19:39:16.469Z,45.23
2022-12-18T19:41:44.457Z,43.80
2022-12-18T19:44:13.753Z,45.70
2022-12-18T19:46:42.314Z,42.40
2022-12-18T19:49:16.744Z,41.27
2022-12-18T19:51:45.479Z,42.70
2022-12-18T19:54:16.719Z,36.33
2022-12-18T19:56:44.524Z,37.83
2022-12-18T19:59:11.289Z,33.90
2022-12-18T20:01:38.317Z,33.83
2022-12-18T20:04:05.540Z,26.43
2022-12-18T20:06:34.387Z,29.50
2022-12-18T20:09:05.117Z,28.00
2022-12-18T20:11:33.388Z,24.43
2022-12-18T20:14:03.480Z,24.70
2022-12-18T20:16:30.879Z,29.67
2022-12-18T20:18:58.835Z,29.93
2022-12-18T20:21:26.014Z,28.87
2022-12-18T20:23:54.488Z,28.13
2022-12-18T20:26:21.859Z,28.17
2022-12-18T20:28:48.911Z,28.20
2022-12-18T20:31:15.699Z,29.33
2022-12-18T20:33:46.006Z,30.37
2022-12-18T20:36:20.110Z,29.00
2022-12-18T20:38:49.732Z,29.03
2022-12-18T20:41:19.204Z,28.33
2022-12-18T20:43:46.793Z,28.00
2022-12-18T20:46:16.194Z,29.70
2022-12-18T20:48:44.727Z,30.17
2022-12-18T20:51:14.512Z,25.63
2022-12-18T20:53:41.780Z,30.30
2022-12-18T20:56:17.788Z,27.10
2022-12-18T20:58:49.371Z,26.40
2022-12-18T21:01:19.211Z,20.87
2022-12-18T21:03:47.437Z,29.10
2022-12-18T21:06:17.486Z,29.10
2022-12-18T21:08:44.859Z,30.47
2022-12-18T21:11:48.282Z,29.07
2022-12-18T21:14:21.393Z,28.40
2022-12-18T21:16:48.981Z,27.60
2022-12-18T21:19:18.715Z,27.63
2022-12-18T21:21:46.423Z,27.20
2022-12-18T21:24:13.604Z,26.97
2022-12-18T21:26:46.134Z,28.80
2022-12-18T21:29:24.726Z,28.13
2022-12-18T21:31:54.262Z,28.47
2022-12-18T21:34:25.562Z,27.50
2022-12-18T21:36:52.629Z,29.13
2022-12-18T21:39:20.072Z,27.83
2022-12-18T21:42:08.606Z,28.03
2022-12-18T21:44:41.617Z,27.63
2022-12-18T21:47:21.666Z,27.50
2022-12-18T21:49:53.333Z,26.93
2022-12-18T21:52:26.284Z,28.47
2022-12-18T21:55:07.978Z,25.03
2022-12-18T21:57:37.193Z,27.97
2022-12-18T22:00:05.444Z,28.57
2022-12-18T22:02:32.555Z,27.23
2022-12-18T22:04:59.852Z,24.93
2022-12-18T22:07:29.020Z,25.63
2022-12-18T22:09:55.866Z,25.63
2022-12-18T22:12:35.854Z,26.23
2022-12-18T22:15:14.352Z,25.83
2022-12-18T22:17:48.079Z,26.90
2022-12-18T22:20:16.055Z,24.90
2022-12-18T22:22:42.891Z,26.20
2022-12-18T22:25:10.710Z,27.40
2022-12-18T22:27:37.905Z,27.23
2022-12-18T22:30:05.832Z,27.53
2022-12-18T22:32:35.072Z,26.00
2022-12-18T22:35:08.372Z,28.60
2022-12-18T22:37:37.445Z,28.00
2022-12-18T22:40:06.011Z,28.80
2022-12-18T22:42:34.250Z,28.60
2022-12-18T22:45:01.047Z,18.43
2022-12-18T22:47:30.532Z,26.60
2022-12-18T22:49:58.136Z,27.33
2022-12-18T22:52:25.550Z,28.90
2022-12-18T22:54:53.696Z,27.03
2022-12-18T22:57:24.953Z,27.13
2022-12-18T22:59:55.069Z,27.50
2022-12-18T23:02:22.108Z,28.27
2022-12-18T23:04:49.291Z,29.37
2022-12-18T23:07:16.978Z,27.80
2022-12-18T23:09:44.283Z,29.40
2022-12-18T23:12:15.691Z,24.50
2022-12-18T23:14:42.660Z,20.70
2022-12-18T23:17:09.486Z,29.20
2022-12-18T23:19:36.829Z,24.23
2022-12-18T23:22:08.568Z,27.77
2022-12-18T23:24:38.385Z,29.90
2022-12-18T23:27:05.726Z,26.03
2022-12-18T23:29:36.407Z,28.93
2022-12-18T23:32:03.243Z,22.90
2022-12-18T23:34:30.136Z,29.07
2022-12-18T23:36:57.517Z,29.03
2022-12-18T23:39:29.278Z,30.23
2022-12-18T23:42:00.801Z,24.40
2022-12-18T23:44:28.257Z,29.23
2022-12-18T23:46:55.307Z,28.43
2022-12-18T23:49:22.380Z,30.27
2022-12-18T23:51:49.592Z,27.20
2022-12-18T23:54:16.494Z,27.37
2022-12-18T23:56:43.376Z,28.77
2022-12-18T23:59:10.429Z,27.87
